| time (UTC) | temp F | wind direction | speed knots | gust knots | rain 1hr in | rain 24hr in | rain mn in | humidity % | barometer mb |
| 20260505211006 | 66 | 275 | 2.6 | 8.7 | 0.00 | 0.00 | 0.00 | 41 | 1015.1 |
| 20260505210504 | 66 | 44 | 3.5 | 9.6 | 0.00 | 0.00 | 0.00 | 42 | 1015.2 |
| 20260505210026 | 68 | 279 | 3.5 | 11.3 | 0.00 | 0.00 | 0.00 | 40 | 1015.1 |
| 20260505205504 | 68 | 36 | 4.3 | 12.2 | 0.00 | 0.00 | 0.00 | 42 | 1015.1 |
| 20260505205004 | 67 | 272 | 2.6 | 12.2 | 0.00 | 0.00 | 0.00 | 42 | 1015.1 |
| 20260505204003 | 67 | 39 | 0.9 | 7.0 | 0.00 | 0.00 | 0.00 | 43 | 1015.1 |
| 20260505203503 | 66 | 240 | 1.7 | 7.8 | 0.00 | 0.00 | 0.00 | 42 | 1015.2 |
| 20260505202503 | 68 | 239 | 2.6 | 13.9 | 0.00 | 0.00 | 0.00 | 41 | 1015.1 |
| 20260505202004 | 68 | 265 | 2.6 | 13.9 | 0.00 | 0.00 | 0.00 | 39 | 1015.0 |
| 20260505201521 | 67 | 251 | 0.9 | 7.0 | 0.00 | 0.00 | 0.00 | 39 | 1015.0 |
| 20260505201003 | 68 | 227 | 1.7 | 8.7 | 0.00 | 0.00 | 0.00 | 41 | 1015.0 |
| 20260505200503 | 68 | 254 | 2.6 | 8.7 | 0.00 | 0.00 | 0.00 | 41 | 1015.0 |
| 20260505200005 | 68 | 318 | 1.7 | 7.0 | 0.00 | 0.00 | 0.00 | 42 | 1015.0 |
| 20260505195502 | 66 | 40 | 0.9 | 8.7 | 0.00 | 0.00 | 0.00 | 39 | 1015.0 |
| 20260505195003 | 68 | 280 | 1.7 | 8.7 | 0.00 | 0.00 | 0.00 | 38 | 1015.0 |
| 20260505194006 | 67 | 263 | 1.7 | 7.8 | 0.00 | 0.00 | 0.00 | 42 | 1015.0 |
| 20260505193504 | 66 | 245 | 1.7 | 9.6 | 0.00 | 0.00 | 0.00 | 41 | 1015.0 |
| 20260505193025 | 66 | 32 | 2.6 | 9.6 | 0.00 | 0.00 | 0.00 | 40 | 1015.0 |
| 20260505192506 | 67 | 355 | 1.7 | 9.6 | 0.00 | 0.00 | 0.00 | 41 | 1015.0 |
| 20260505191529 | 65 | 242 | 0.0 | 7.0 | 0.00 | 0.00 | 0.00 | 43 | 1015.0 |
| 20260505190503 | 66 | 257 | 2.6 | 7.8 | 0.00 | 0.00 | 0.00 | 40 | 1015.1 |
| 20260505185503 | 65 | 280 | 1.7 | 7.8 | 0.00 | 0.00 | 0.00 | 47 | 1015.1 |
| 20260505184526 | 64 | 257 | 1.7 | 6.1 | 0.00 | 0.00 | 0.00 | 54 | 1015.0 |
| 20260505184003 | 65 | 156 | 0.9 | 3.5 | 0.00 | 0.00 | 0.00 | 52 | 1014.9 |
| 20260505183505 | 65 | 184 | 0.9 | 3.5 | 0.00 | 0.00 | 0.00 | 52 | 1015.0 |
| 20260505183033 | 65 | 278 | 1.7 | 3.5 | 0.00 | 0.00 | 0.00 | 54 | 1014.8 |
| 20260505182004 | 64 | 18 | 0.9 | 7.0 | 0.00 | 0.00 | 0.00 | 53 | 1014.9 |
| 20260505180042 | 65 | 279 | 0.9 | 4.3 | 0.00 | 0.00 | 0.00 | 51 | 1014.9 |
| 20260505175506 | 65 | 263 | 0.9 | 5.2 | 0.00 | 0.00 | 0.00 | 52 | 1015.0 |
| 20260505175003 | 63 | 238 | 1.7 | 5.2 | 0.00 | 0.00 | 0.00 | 54 | 1014.9 |
| 20260505174512 | 63 | 261 | 0.9 | 6.1 | 0.00 | 0.00 | 0.00 | 52 | 1014.9 |
| 20260505174007 | 63 | 265 | 0.9 | 7.0 | 0.00 | 0.00 | 0.00 | 54 | 1015.0 |
| 20260505173503 | 64 | 259 | 3.5 | 7.0 | 0.00 | 0.00 | 0.00 | 55 | 1014.9 |
| 20260505173008 | 63 | 22 | 0.9 | 4.3 | 0.00 | 0.00 | 0.00 | 59 | 1014.7 |
| 20260505172505 | 61 | 247 | 0.0 | 3.5 | 0.00 | 0.00 | 0.00 | 59 | 1014.7 |
| 20260505172004 | 62 | 65 | 0.9 | 5.2 | 0.00 | 0.00 | 0.00 | 55 | 1014.7 |
| 20260505171531 | 63 | 73 | 1.7 | 5.2 | 0.00 | 0.00 | 0.00 | 52 | 1014.7 |
| 20260505171006 | 62 | 139 | 0.9 | 4.3 | 0.00 | 0.00 | 0.00 | 53 | 1014.7 |
| 20260505170502 | 63 | 221 | 0.9 | 4.3 | 0.00 | 0.00 | 0.00 | 55 | 1014.6 |
| 20260505170025 | 63 | 210 | 1.7 | 4.3 | 0.00 | 0.00 | 0.00 | 52 | 1014.6 |
| 20260505165503 | 62 | 153 | 0.9 | 4.3 | 0.00 | 0.00 | 0.00 | 50 | 1014.6 |
| 20260505165002 | 62 | 186 | 0.9 | 3.5 | 0.00 | 0.00 | 0.00 | 51 | 1014.7 |
| 20260505164505 | 61 | 232 | 0.9 | 2.6 | 0.00 | 0.00 | 0.00 | 56 | 1014.7 |
| 20260505164003 | 60 | 189 | 0.0 | 2.6 | 0.00 | 0.00 | 0.00 | 58 | 1014.7 |
| 20260505163504 | 60 | 246 | 0.0 | 3.5 | 0.00 | 0.00 | 0.00 | 60 | 1014.6 |
| 20260505163021 | 60 | 233 | 0.9 | 3.5 | 0.00 | 0.00 | 0.00 | 62 | 1014.7 |
| 20260505162503 | 60 | 237 | 0.0 | 2.6 | 0.00 | 0.00 | 0.00 | 62 | 1014.7 |
| 20260505162007 | 58 | 281 | 0.0 | 1.7 | 0.00 | 0.00 | 0.00 | 62 | 1014.7 |
| 20260505161503 | 58 | 296 | 0.0 | 1.7 | 0.00 | 0.00 | 0.00 | 65 | 1014.7 |
| 20260505161004 | 58 | 283 | 0.0 | 5.2 | 0.00 | 0.00 | 0.00 | 62 | 1014.7 |
| 20260505160503 | 58 | 5 | 0.9 | 5.2 | 0.00 | 0.00 | 0.00 | 66 | 1014.7 |
| 20260505153012 | 51 | 360 | 0.9 | 1.7 | 0.00 | 0.00 | 0.00 | 82 | 1014.6 |
| 20260505152506 | 50 | 360 | 0.0 | 0.9 | 0.00 | 0.00 | 0.00 | 85 | 1014.5 |
| 20260505152003 | 49 | 360 | 0.0 | 0.9 | 0.00 | 0.00 | 0.00 | 85 | 1014.6 |
| 20260505151525 | 48 | 360 | 0.0 | 0.9 | 0.00 | 0.00 | 0.00 | 88 | 1014.5 |
| 20260505151003 | 47 | 360 | 0.0 | 0.9 | 0.00 | 0.00 | 0.00 | 89 | 1014.5 |
| 20260505150503 | 47 | 360 | 0.0 | 1.7 | 0.00 | 0.00 | 0.00 | 89 | 1014.5 |
| 20260505140504 | 39 | 154 | 0.0 | 0.9 | 0.00 | 0.00 | 0.00 | 94 | 1013.9 |
| 20260505125006 | 37 | 360 | 0.0 | 0.0 | 0.00 | 0.00 | 0.00 | 93 | 1013.4 |
| 20260505124529 | 37 | 360 | 0.0 | 0.0 | 0.00 | 0.00 | 0.00 | 92 | 1013.4 |
| 20260505124004 | 37 | 360 | 0.0 | 0.0 | 0.00 | 0.00 | 0.00 | 91 | 1013.3 |
| 20260505123504 | 37 | 360 | 0.0 | 0.9 | 0.00 | 0.00 | 0.00 | 92 | 1013.1 |
| 20260505123026 | 38 | 360 | 0.0 | 0.9 | 0.00 | 0.00 | 0.00 | 92 | 1013.1 |
| 20260505122507 | 37 | 360 | 0.0 | 0.9 | 0.00 | 0.00 | 0.00 | 91 | 1013.1 |
| 20260505122004 | 38 | 360 | 0.0 | 0.9 | 0.00 | 0.00 | 0.00 | 91 | 1013.0 |
| 20260505121514 | 37 | 360 | 0.0 | 0.9 | 0.00 | 0.00 | 0.00 | 91 | 1013.1 |
| 20260505121009 | 38 | 360 | 0.0 | 0.9 | 0.00 | 0.00 | 0.00 | 91 | 1013.2 |
| 20260505120504 | 38 | 360 | 0.0 | 0.9 | 0.00 | 0.00 | 0.00 | 90 | 1013.1 |
| 20260505120029 | 38 | 360 | 0.0 | 0.9 | 0.00 | 0.00 | 0.00 | 90 | 1013.1 |
| 20260505115504 | 38 | 360 | 0.0 | 0.9 | 0.00 | 0.00 | 0.00 | 91 | 1013.0 |
| 20260505115004 | 38 | 360 | 0.0 | 0.9 | 0.00 | 0.00 | 0.00 | 91 | 1013.0 |
| 20260505114507 | 38 | 360 | 0.0 | 0.9 | 0.00 | 0.00 | 0.00 | 91 | 1013.0 |
| 20260505114006 | 38 | 155 | 0.0 | 0.9 | 0.00 | 0.00 | 0.00 | 90 | 1012.9 |
| 20260505113505 | 38 | 360 | 0.0 | 0.9 | 0.00 | 0.00 | 0.00 | 90 | 1012.9 |
| 20260505113028 | 38 | 360 | 0.0 | 0.9 | 0.00 | 0.00 | 0.00 | 90 | 1013.0 |
| 20260505112504 | 38 | 360 | 0.0 | 0.9 | 0.00 | 0.00 | 0.00 | 90 | 1012.9 |
| 20260505112006 | 39 | 154 | 0.0 | 0.9 | 0.00 | 0.00 | 0.00 | 89 | 1012.8 |
| 20260505111004 | 39 | 154 | 0.0 | 0.9 | 0.00 | 0.00 | 0.00 | 89 | 1012.8 |
| 20260505101546 | 41 | 161 | 0.0 | 1.7 | 0.00 | 0.00 | 0.00 | 89 | 1012.7 |
| 20260505101006 | 40 | 161 | 0.0 | 1.7 | 0.00 | 0.00 | 0.00 | 89 | 1012.5 |
| 20260505100051 | 40 | 140 | 0.0 | 1.7 | 0.00 | 0.00 | 0.00 | 88 | 1012.5 |
| 20260505095503 | 40 | 212 | 0.0 | 0.9 | 0.00 | 0.00 | 0.00 | 89 | 1012.5 |
| 20260505095005 | 40 | 212 | 0.0 | 0.9 | 0.00 | 0.00 | 0.00 | 88 | 1012.5 |
| 20260505093507 | 40 | 212 | 0.0 | 1.7 | 0.00 | 0.00 | 0.00 | 88 | 1012.5 |
| 20260505093028 | 40 | 213 | 0.0 | 1.7 | 0.00 | 0.00 | 0.00 | 87 | 1012.5 |
| 20260505091528 | 41 | 253 | 0.0 | 1.7 | 0.00 | 0.00 | 0.00 | 87 | 1012.6 |
| 20260505091008 | 41 | 253 | 0.9 | 1.7 | 0.00 | 0.00 | 0.00 | 87 | 1012.5 |
| 20260505090507 | 41 | 149 | 0.0 | 1.7 | 0.00 | 0.00 | 0.00 | 87 | 1012.5 |
| 20260505090026 | 41 | 122 | 0.0 | 0.9 | 0.00 | 0.00 | 0.00 | 87 | 1012.5 |
| 20260505085508 | 41 | 360 | 0.0 | 0.9 | 0.00 | 0.00 | 0.00 | 88 | 1012.6 |
| 20260505084521 | 41 | 360 | 0.0 | 0.9 | 0.00 | 0.00 | 0.00 | 86 | 1012.6 |
| 20260505084003 | 41 | 122 | 0.0 | 1.7 | 0.00 | 0.00 | 0.00 | 86 | 1012.5 |
| 20260505083008 | 41 | 96 | 0.0 | 1.7 | 0.00 | 0.00 | 0.00 | 86 | 1012.5 |
| 20260505082503 | 42 | 96 | 0.0 | 1.7 | 0.00 | 0.00 | 0.00 | 85 | 1012.5 |
| 20260505081524 | 42 | 190 | 0.0 | 2.6 | 0.00 | 0.00 | 0.00 | 87 | 1012.5 |
| 20260505081010 | 42 | 190 | 0.0 | 0.9 | 0.00 | 0.00 | 0.00 | 86 | 1012.5 |
| 20260505080503 | 42 | 190 | 0.0 | 0.9 | 0.00 | 0.00 | 0.00 | 84 | 1012.5 |
| 20260505080006 | 42 | 190 | 0.0 | 0.9 | 0.00 | 0.00 | 0.00 | 84 | 1012.5 |
| 20260505075502 | 42 | 190 | 0.0 | 0.9 | 0.00 | 0.00 | 0.00 | 83 | 1012.4 |
| 20260505075005 | 43 | 190 | 0.0 | 0.9 | 0.00 | 0.00 | 0.00 | 86 | 1012.3 |
| 20260505074009 | 42 | 190 | 0.0 | 1.7 | 0.00 | 0.00 | 0.00 | 84 | 1012.4 |
| 20260505073015 | 42 | 150 | 0.0 | 1.7 | 0.00 | 0.00 | 0.00 | 85 | 1012.5 |
| 20260505072507 | 42 | 165 | 0.0 | 1.7 | 0.00 | 0.00 | 0.00 | 85 | 1012.4 |
| 20260505072004 | 42 | 165 | 0.0 | 0.9 | 0.00 | 0.00 | 0.00 | 84 | 1012.5 |
| 20260505071507 | 42 | 165 | 0.0 | 1.7 | 0.00 | 0.00 | 0.00 | 84 | 1012.5 |
| 20260505071003 | 43 | 158 | 0.0 | 1.7 | 0.00 | 0.00 | 0.00 | 82 | 1012.4 |
| 20260505070503 | 42 | 157 | 0.0 | 3.5 | 0.00 | 0.00 | 0.00 | 85 | 1012.4 |
| 20260505070015 | 43 | 360 | 0.9 | 3.5 | 0.00 | 0.00 | 0.00 | 82 | 1012.4 |
| 20260505065506 | 43 | 162 | 0.0 | 1.7 | 0.00 | 0.00 | 0.00 | 82 | 1012.4 |
| 20260505065003 | 43 | 182 | 0.0 | 1.7 | 0.00 | 0.00 | 0.00 | 82 | 1012.3 |
| 20260505064513 | 43 | 144 | 0.0 | 1.7 | 0.00 | 0.00 | 0.00 | 82 | 1012.2 |
| 20260505064009 | 43 | 157 | 0.0 | 1.7 | 0.00 | 0.00 | 0.00 | 81 | 1012.2 |
| 20260505063502 | 44 | 136 | 0.0 | 1.7 | 0.00 | 0.00 | 0.00 | 80 | 1012.2 |
| 20260505063022 | 44 | 159 | 0.0 | 1.7 | 0.00 | 0.00 | 0.00 | 81 | 1012.2 |
| 20260505062504 | 44 | 167 | 0.0 | 2.6 | 0.00 | 0.00 | 0.00 | 81 | 1012.3 |
| 20260505062007 | 45 | 167 | 0.9 | 2.6 | 0.00 | 0.00 | 0.00 | 78 | 1012.3 |
| 20260505061512 | 45 | 360 | 0.0 | 2.6 | 0.00 | 0.00 | 0.00 | 82 | 1012.2 |
| 20260505061003 | 44 | 360 | 0.0 | 2.6 | 0.00 | 0.00 | 0.00 | 78 | 1012.2 |
| 20260505060503 | 46 | 360 | 0.0 | 3.5 | 0.00 | 0.00 | 0.00 | 76 | 1012.1 |
| 20260505060026 | 45 | 147 | 0.9 | 3.5 | 0.00 | 0.00 | 0.00 | 77 | 1012.0 |
| 20260505055504 | 45 | 360 | 0.9 | 3.5 | 0.00 | 0.00 | 0.00 | 78 | 1011.9 |
| 20260505055011 | 45 | 146 | 0.9 | 3.5 | 0.00 | 0.00 | 0.00 | 77 | 1011.9 |
| 20260505054516 | 46 | 128 | 0.9 | 2.6 | 0.00 | 0.00 | 0.00 | 76 | 1011.9 |
| 20260505054002 | 46 | 360 | 0.0 | 4.3 | 0.00 | 0.00 | 0.00 | 75 | 1011.9 |
| 20260505053510 | 46 | 360 | 0.0 | 4.3 | 0.00 | 0.00 | 0.00 | 75 | 1012.0 |
| 20260505053036 | 46 | 360 | 0.0 | 4.3 | 0.00 | 0.00 | 0.00 | 76 | 1012.0 |
| 20260505052507 | 46 | 136 | 0.0 | 4.3 | 0.00 | 0.00 | 0.00 | 76 | 1012.0 |
| 20260505052006 | 47 | 159 | 0.0 | 2.6 | 0.00 | 0.00 | 0.00 | 75 | 1012.0 |
| 20260505051521 | 47 | 140 | 0.9 | 2.6 | 0.00 | 0.00 | 0.00 | 73 | 1012.0 |
| 20260505051006 | 47 | 108 | 0.9 | 2.6 | 0.00 | 0.00 | 0.00 | 72 | 1012.0 |
| 20260505050504 | 47 | 111 | 0.0 | 3.5 | 0.00 | 0.00 | 0.00 | 73 | 1012.0 |
| 20260505041530 | 49 | 146 | 0.9 | 3.5 | 0.00 | 0.00 | 0.00 | 68 | 1011.8 |
| 20260505041004 | 49 | 117 | 0.9 | 3.5 | 0.00 | 0.00 | 0.00 | 69 | 1011.8 |
| 20260505040510 | 49 | 155 | 0.9 | 7.0 | 0.00 | 0.00 | 0.00 | 69 | 1011.7 |
| 20260505040020 | 50 | 88 | 1.7 | 7.0 | 0.00 | 0.00 | 0.00 | 68 | 1011.8 |
| 20260505035508 | 50 | 150 | 1.7 | 6.1 | 0.00 | 0.00 | 0.00 | 68 | 1011.7 |
| 20260505035003 | 50 | 103 | 1.7 | 6.1 | 0.00 | 0.00 | 0.00 | 67 | 1011.7 |
| 20260505034527 | 51 | 146 | 1.7 | 5.2 | 0.00 | 0.00 | 0.00 | 65 | 1011.7 |
| 20260505034015 | 51 | 134 | 1.7 | 5.2 | 0.00 | 0.00 | 0.00 | 67 | 1011.7 |
| 20260505033503 | 52 | 131 | 0.9 | 5.2 | 0.00 | 0.00 | 0.00 | 66 | 1011.7 |
| 20260505033013 | 52 | 150 | 0.9 | 5.2 | 0.00 | 0.00 | 0.00 | 64 | 1011.6 |
| 20260505032505 | 53 | 123 | 1.7 | 4.3 | 0.00 | 0.00 | 0.00 | 64 | 1011.6 |
| 20260505032008 | 53 | 157 | 1.7 | 4.3 | 0.00 | 0.00 | 0.00 | 62 | 1011.5 |
| 20260505031509 | 54 | 118 | 1.7 | 4.3 | 0.00 | 0.00 | 0.00 | 61 | 1011.6 |
| 20260505031011 | 54 | 121 | 0.9 | 4.3 | 0.00 | 0.00 | 0.00 | 61 | 1011.5 |
| 20260505030510 | 55 | 136 | 0.9 | 3.5 | 0.00 | 0.00 | 0.00 | 59 | 1011.5 |
| 20260505030006 | 56 | 153 | 0.9 | 3.5 | 0.00 | 0.00 | 0.00 | 56 | 1011.4 |
| 20260505025507 | 57 | 142 | 0.0 | 2.6 | 0.00 | 0.00 | 0.00 | 54 | 1011.4 |
| 20260505025006 | 58 | 148 | 0.9 | 1.7 | 0.00 | 0.00 | 0.00 | 51 | 1011.4 |
| 20260505024517 | 59 | 137 | 0.0 | 2.6 | 0.00 | 0.00 | 0.00 | 48 | 1011.4 |
| 20260505024003 | 60 | 117 | 0.0 | 2.6 | 0.00 | 0.00 | 0.00 | 43 | 1011.4 |
| 20260505023502 | 61 | 315 | 0.0 | 9.6 | 0.00 | 0.00 | 0.00 | 41 | 1011.4 |
| 20260505023011 | 62 | 326 | 0.9 | 9.6 | 0.00 | 0.00 | 0.00 | 37 | 1011.3 |
| 20260505022502 | 62 | 347 | 0.9 | 4.3 | 0.00 | 0.00 | 0.00 | 38 | 1011.3 |
| 20260505022002 | 63 | 5 | 0.9 | 9.6 | 0.00 | 0.00 | 0.00 | 37 | 1011.3 |
| 20260505021505 | 62 | 213 | 3.5 | 9.6 | 0.00 | 0.00 | 0.00 | 39 | 1011.3 |
| 20260505021003 | 63 | 304 | 2.6 | 7.8 | 0.00 | 0.00 | 0.00 | 37 | 1011.3 |
| 20260505020503 | 63 | 344 | 1.7 | 7.8 | 0.00 | 0.00 | 0.00 | 40 | 1011.4 |
| 20260505020012 | 63 | 179 | 0.0 | 6.1 | 0.00 | 0.00 | 0.00 | 38 | 1011.3 |
| 20260505015503 | 63 | 221 | 0.0 | 6.1 | 0.00 | 0.00 | 0.00 | 38 | 1011.3 |
| 20260505015003 | 64 | 238 | 1.7 | 5.2 | 0.00 | 0.00 | 0.00 | 40 | 1011.3 |
| 20260505014505 | 64 | 266 | 0.0 | 7.8 | 0.00 | 0.00 | 0.00 | 38 | 1011.4 |
| 20260505014002 | 64 | 129 | 1.7 | 7.8 | 0.00 | 0.00 | 0.00 | 39 | 1011.4 |
| 20260505013503 | 64 | 307 | 1.7 | 7.8 | 0.00 | 0.00 | 0.00 | 41 | 1011.4 |
| 20260505013010 | 64 | 286 | 0.9 | 7.0 | 0.00 | 0.00 | 0.00 | 38 | 1011.4 |
| 20260505012502 | 65 | 265 | 1.7 | 6.1 | 0.00 | 0.00 | 0.00 | 39 | 1011.6 |
| 20260505012004 | 65 | 238 | 1.7 | 5.2 | 0.00 | 0.00 | 0.00 | 38 | 1011.6 |
| 20260505011509 | 65 | 355 | 0.9 | 8.7 | 0.00 | 0.00 | 0.00 | 36 | 1011.6 |
| 20260505011003 | 65 | 328 | 2.6 | 8.7 | 0.00 | 0.00 | 0.00 | 36 | 1011.7 |
| 20260505010502 | 65 | 241 | 1.7 | 7.8 | 0.00 | 0.00 | 0.00 | 35 | 1011.7 |
| 20260505010014 | 66 | 275 | 2.6 | 7.8 | 0.00 | 0.00 | 0.00 | 36 | 1011.8 |
| 20260505005503 | 66 | 250 | 1.7 | 7.0 | 0.00 | 0.00 | 0.00 | 35 | 1011.7 |
| 20260505005004 | 66 | 279 | 1.7 | 10.4 | 0.00 | 0.00 | 0.00 | 35 | 1011.6 |
| 20260505004522 | 66 | 279 | 2.6 | 10.4 | 0.00 | 0.00 | 0.00 | 35 | 1011.6 |
| 20260505004003 | 66 | 269 | 1.7 | 9.6 | 0.00 | 0.00 | 0.00 | 33 | 1011.5 |
| 20260505003502 | 67 | 345 | 3.5 | 9.6 | 0.00 | 0.00 | 0.00 | 34 | 1011.6 |
| 20260505003017 | 67 | 252 | 0.9 | 10.4 | 0.00 | 0.00 | 0.00 | 33 | 1011.5 |
| 20260505002504 | 67 | 312 | 3.5 | 10.4 | 0.00 | 0.00 | 0.00 | 34 | 1011.6 |
| 20260505002004 | 67 | 273 | 2.6 | 9.6 | 0.00 | 0.00 | 0.00 | 31 | 1011.6 |
| 20260505001512 | 67 | 241 | 2.6 | 9.6 | 0.00 | 0.00 | 0.00 | 34 | 1011.6 |
| 20260505001003 | 67 | 313 | 1.7 | 7.8 | 0.00 | 0.00 | 0.00 | 29 | 1011.6 |
| 20260505000505 | 68 | 227 | 2.6 | 9.6 | 0.00 | 0.00 | 0.00 | 32 | 1011.6 |
| 20260505000032 | 68 | 248 | 2.6 | 9.6 | 0.00 | 0.00 | 0.00 | 30 | 1011.7 |
| 20260504235502 | 68 | 252 | 1.7 | 11.3 | 0.00 | 0.00 | 0.00 | 30 | 1011.7 |
| 20260504235003 | 68 | 221 | 1.7 | 11.3 | 0.00 | 0.00 | 0.00 | 31 | 1011.7 |
| 20260504234507 | 68 | 252 | 2.6 | 7.8 | 0.00 | 0.00 | 0.00 | 30 | 1011.8 |
| 20260504234004 | 68 | 70 | 1.7 | 9.6 | 0.00 | 0.00 | 0.00 | 30 | 1011.8 |
| 20260504233503 | 68 | 304 | 1.7 | 9.6 | 0.00 | 0.00 | 0.00 | 29 | 1011.7 |
| 20260504232505 | 69 | 265 | 4.3 | 12.2 | 0.00 | 0.00 | 0.00 | 29 | 1011.9 |
| 20260504232008 | 69 | 244 | 1.7 | 13.0 | 0.00 | 0.00 | 0.00 | 30 | 1011.9 |
| 20260504231524 | 69 | 331 | 4.3 | 13.0 | 0.00 | 0.00 | 0.00 | 30 | 1011.9 |
| 20260504225504 | 69 | 242 | 2.6 | 13.0 | 0.00 | 0.00 | 0.00 | 31 | 1012.0 |
| 20260504225004 | 68 | 59 | 3.5 | 13.0 | 0.00 | 0.00 | 0.00 | 31 | 1012.0 |
| 20260504224529 | 68 | 355 | 1.7 | 7.0 | 0.00 | 0.00 | 0.00 | 32 | 1012.0 |
| 20260504224004 | 70 | 336 | 1.7 | 7.0 | 0.00 | 0.00 | 0.00 | 32 | 1012.0 |
| 20260504223008 | 69 | 36 | 5.2 | 12.2 | 0.00 | 0.00 | 0.00 | 33 | 1012.1 |
| 20260504222504 | 69 | 302 | 1.7 | 11.3 | 0.00 | 0.00 | 0.00 | 32 | 1012.2 |
| 20260504222003 | 70 | 338 | 4.3 | 11.3 | 0.00 | 0.00 | 0.00 | 31 | 1012.2 |
| 20260504221004 | 71 | 336 | 3.5 | 7.8 | 0.00 | 0.00 | 0.00 | 33 | 1012.2 |
| 20260504220504 | 71 | 355 | 1.7 | 10.4 | 0.00 | 0.00 | 0.00 | 31 | 1012.1 |
| 20260504220026 | 71 | 245 | 3.5 | 10.4 | 0.00 | 0.00 | 0.00 | 31 | 1012.1 |
| 20260504215507 | 71 | 22 | 0.9 | 11.3 | 0.00 | 0.00 | 0.00 | 32 | 1012.2 |
| 20260504215011 | 71 | 5 | 4.3 | 11.3 | 0.00 | 0.00 | 0.00 | 31 | 1012.2 |
| 20260504213507 | 71 | 304 | 1.7 | 10.4 | 0.00 | 0.00 | 0.00 | 31 | 1012.2 |
| 20260504213032 | 72 | 345 | 3.5 | 10.4 | 0.00 | 0.00 | 0.00 | 32 | 1012.2 |
| 20260504212504 | 71 | 267 | 1.7 | 7.8 | 0.00 | 0.00 | 0.00 | 32 | 1012.3 |
| 20260504212009 | 71 | 294 | 2.6 | 7.8 | 0.00 | 0.00 | 0.00 | 30 | 1012.2 |
| 20260504211514 | 71 | 260 | 1.7 | 9.6 | 0.00 | 0.00 | 0.00 | 31 | 1012.4 |